KLRJ/LRJ METAR and TAF weather

Enter ICAO airport designator
Station Type Date Time Source
KLRJ METAR 2022/12/03 14:55 UTC NOAA

KLRJ 031455Z AUTO 24003KT 10SM CLR M13/M16 A3053 RMK AO2


Station Type Date Time Source
KLRJ Decoded METAR 2022/12/03 14:55 UTC NOAA

Le Mars, Le Mars Municipal Airport, IA, United States (KLRJ) 42-46-41N 096-11-37W
Dec 03, 2022 - 09:55 AM EST / 2022.12.03 1455 UTC
Wind: from the WSW (240 degrees) at 3 MPH (3 KT):0
Visibility: 10 mile(s):0
Sky conditions: clear
Temperature: 8 F (-13 C)
Dew Point: 3 F (-16 C)
Relative Humidity: 78%
Pressure (altimeter): 30.53 in. Hg (1033 hPa)
ob: KLRJ 031455Z AUTO 24003KT 10SM CLR M13/M16 A3053 RMK AO2
cycle: 15

Station Type Date Time Source
KLRJ TAF UTC NOAA

Error!

Example: see airport list